sensor_id;sensor_type;location;lat;lon;timestamp;pressure;altitude;pressure_sealevel;temperature;humidity
64602;BME280;68371;42.630;23.192;2023-11-21T00:00:58;92133.81;;;2.71;86.41
64602;BME280;68371;42.630;23.192;2023-11-21T00:03:26;92130.09;;;2.63;86.96
64602;BME280;68371;42.630;23.192;2023-11-21T00:05:53;92123.63;;;2.74;87.01
64602;BME280;68371;42.630;23.192;2023-11-21T00:08:20;92127.75;;;2.75;86.75
64602;BME280;68371;42.630;23.192;2023-11-21T00:10:46;92127.59;;;2.72;86.60
64602;BME280;68371;42.630;23.192;2023-11-21T00:13:13;92127.41;;;2.68;86.70
64602;BME280;68371;42.630;23.192;2023-11-21T00:15:41;92118.47;;;2.60;86.91
64602;BME280;68371;42.630;23.192;2023-11-21T00:18:08;92121.25;;;2.64;86.42
64602;BME280;68371;42.630;23.192;2023-11-21T00:20:35;92117.72;;;2.60;86.51
64602;BME280;68371;42.630;23.192;2023-11-21T00:23:02;92117.13;;;2.49;86.83
64602;BME280;68371;42.630;23.192;2023-11-21T00:25:29;92124.22;;;2.57;87.01
64602;BME280;68371;42.630;23.192;2023-11-21T00:27:56;92121.94;;;2.56;86.95
64602;BME280;68371;42.630;23.192;2023-11-21T00:30:23;92120.31;;;2.60;86.88
64602;BME280;68371;42.630;23.192;2023-11-21T00:32:51;92116.75;;;2.56;86.58
64602;BME280;68371;42.630;23.192;2023-11-21T00:35:18;92129.72;;;2.56;86.24
64602;BME280;68371;42.630;23.192;2023-11-21T00:37:45;92125.97;;;2.62;86.71
64602;BME280;68371;42.630;23.192;2023-11-21T00:40:12;92123.47;;;2.57;86.60
64602;BME280;68371;42.630;23.192;2023-11-21T00:42:40;92130.50;;;2.56;86.90
64602;BME280;68371;42.630;23.192;2023-11-21T00:45:08;92130.28;;;2.53;86.73
64602;BME280;68371;42.630;23.192;2023-11-21T00:47:35;92136.06;;;2.50;86.46
64602;BME280;68371;42.630;23.192;2023-11-21T00:50:04;92130.97;;;2.45;87.21
64602;BME280;68371;42.630;23.192;2023-11-21T00:52:32;92138.97;;;2.48;86.57
64602;BME280;68371;42.630;23.192;2023-11-21T00:54:59;92131.94;;;2.49;86.38
64602;BME280;68371;42.630;23.192;2023-11-21T00:57:27;92126.00;;;2.48;86.33
64602;BME280;68371;42.630;23.192;2023-11-21T00:59:53;92125.03;;;2.44;86.28
64602;BME280;68371;42.630;23.192;2023-11-21T01:02:20;92108.06;;;2.38;86.59
64602;BME280;68371;42.630;23.192;2023-11-21T01:04:47;92116.19;;;2.45;86.35
64602;BME280;68371;42.630;23.192;2023-11-21T01:07:15;92104.97;;;2.50;85.90
64602;BME280;68371;42.630;23.192;2023-11-21T01:09:42;92111.47;;;2.47;86.38
64602;BME280;68371;42.630;23.192;2023-11-21T01:12:09;92100.28;;;2.38;86.55
64602;BME280;68371;42.630;23.192;2023-11-21T01:14:36;92109.75;;;2.43;86.36
64602;BME280;68371;42.630;23.192;2023-11-21T01:17:04;92096.59;;;2.39;86.19
64602;BME280;68371;42.630;23.192;2023-11-21T01:19:32;92107.66;;;2.45;86.08
64602;BME280;68371;42.630;23.192;2023-11-21T01:21:59;92110.72;;;2.47;86.08
64602;BME280;68371;42.630;23.192;2023-11-21T01:24:27;92112.09;;;2.30;86.29
64602;BME280;68371;42.630;23.192;2023-11-21T01:26:53;92118.34;;;2.29;86.72
64602;BME280;68371;42.630;23.192;2023-11-21T01:29:20;92116.22;;;2.31;86.24
64602;BME280;68371;42.630;23.192;2023-11-21T01:31:47;92110.16;;;2.36;86.40
64602;BME280;68371;42.630;23.192;2023-11-21T01:34:13;92114.97;;;2.29;86.36
64602;BME280;68371;42.630;23.192;2023-11-21T01:36:41;92109.78;;;2.29;85.90
64602;BME280;68371;42.630;23.192;2023-11-21T01:39:08;92101.94;;;2.20;86.61
64602;BME280;68371;42.630;23.192;2023-11-21T01:41:40;92116.03;;;2.28;86.49
64602;BME280;68371;42.630;23.192;2023-11-21T01:44:09;92108.75;;;2.30;86.23
64602;BME280;68371;42.630;23.192;2023-11-21T01:46:38;92104.59;;;2.29;86.64
64602;BME280;68371;42.630;23.192;2023-11-21T01:49:05;92100.00;;;2.26;86.25
64602;BME280;68371;42.630;23.192;2023-11-21T01:51:34;92090.53;;;2.21;87.19
64602;BME280;68371;42.630;23.192;2023-11-21T01:54:02;92086.84;;;2.22;87.44
64602;BME280;68371;42.630;23.192;2023-11-21T01:56:30;92086.84;;;2.22;87.43
64602;BME280;68371;42.630;23.192;2023-11-21T01:58:59;92092.81;;;2.23;87.28
64602;BME280;68371;42.630;23.192;2023-11-21T02:01:25;92095.78;;;2.16;87.15
64602;BME280;68371;42.630;23.192;2023-11-21T02:03:51;92083.31;;;2.18;87.17
64602;BME280;68371;42.630;23.192;2023-11-21T02:06:18;92097.88;;;2.28;87.01
64602;BME280;68371;42.630;23.192;2023-11-21T02:08:45;92097.41;;;2.26;87.40
64602;BME280;68371;42.630;23.192;2023-11-21T02:11:12;92103.06;;;2.28;86.94
64602;BME280;68371;42.630;23.192;2023-11-21T02:13:39;92094.06;;;2.25;86.87
64602;BME280;68371;42.630;23.192;2023-11-21T02:16:10;92088.88;;;2.25;87.17
64602;BME280;68371;42.630;23.192;2023-11-21T02:18:38;92086.75;;;2.27;87.19
64602;BME280;68371;42.630;23.192;2023-11-21T02:21:05;92094.06;;;2.25;87.06
64602;BME280;68371;42.630;23.192;2023-11-21T02:23:34;92088.69;;;2.22;87.39
64602;BME280;68371;42.630;23.192;2023-11-21T02:26:01;92087.94;;;2.21;87.43
64602;BME280;68371;42.630;23.192;2023-11-21T02:28:29;92079.06;;;2.22;87.75
64602;BME280;68371;42.630;23.192;2023-11-21T02:30:56;92073.63;;;2.24;87.59
64602;BME280;68371;42.630;23.192;2023-11-21T02:33:24;92077.16;;;2.28;87.88
64602;BME280;68371;42.630;23.192;2023-11-21T02:35:51;92076.19;;;2.24;87.45
64602;BME280;68371;42.630;23.192;2023-11-21T02:38:20;92080.03;;;2.26;87.62
64602;BME280;68371;42.630;23.192;2023-11-21T02:40:48;92078.03;;;2.23;87.83
64602;BME280;68371;42.630;23.192;2023-11-21T02:43:15;92082.06;;;2.15;87.76
64602;BME280;68371;42.630;23.192;2023-11-21T02:45:42;92083.59;;;2.16;87.50
64602;BME280;68371;42.630;23.192;2023-11-21T02:48:08;92083.97;;;2.24;87.32
64602;BME280;68371;42.630;23.192;2023-11-21T02:50:36;92087.13;;;2.20;87.06
64602;BME280;68371;42.630;23.192;2023-11-21T02:53:02;92090.81;;;2.19;87.61
64602;BME280;68371;42.630;23.192;2023-11-21T02:55:31;92081.66;;;2.22;87.68
64602;BME280;68371;42.630;23.192;2023-11-21T02:58:01;92075.25;;;2.19;87.53
64602;BME280;68371;42.630;23.192;2023-11-21T03:00:29;92072.47;;;2.16;87.55
64602;BME280;68371;42.630;23.192;2023-11-21T03:02:56;92076.28;;;2.18;87.33
64602;BME280;68371;42.630;23.192;2023-11-21T03:05:23;92083.78;;;2.20;87.50
64602;BME280;68371;42.630;23.192;2023-11-21T03:07:50;92069.13;;;2.15;88.01
64602;BME280;68371;42.630;23.192;2023-11-21T03:10:16;92080.25;;;2.16;87.56
64602;BME280;68371;42.630;23.192;2023-11-21T03:12:44;92076.88;;;2.15;87.32
64602;BME280;68371;42.630;23.192;2023-11-21T03:15:12;92078.88;;;2.18;87.38
64602;BME280;68371;42.630;23.192;2023-11-21T03:17:39;92084.66;;;2.15;87.43
64602;BME280;68371;42.630;23.192;2023-11-21T03:20:07;92078.13;;;2.04;87.72
64602;BME280;68371;42.630;23.192;2023-11-21T03:22:36;92090.88;;;2.14;87.28
64602;BME280;68371;42.630;23.192;2023-11-21T03:25:03;92089.38;;;2.13;87.41
64602;BME280;68371;42.630;23.192;2023-11-21T03:27:31;92095.59;;;2.12;87.29
64602;BME280;68371;42.630;23.192;2023-11-21T03:29:58;92093.97;;;2.16;87.67
64602;BME280;68371;42.630;23.192;2023-11-21T03:32:26;92097.16;;;2.13;87.48
64602;BME280;68371;42.630;23.192;2023-11-21T03:34:54;92098.38;;;2.16;87.97
64602;BME280;68371;42.630;23.192;2023-11-21T03:37:22;92088.09;;;2.11;88.15
64602;BME280;68371;42.630;23.192;2023-11-21T03:39:48;92081.41;;;2.10;88.52
64602;BME280;68371;42.630;23.192;2023-11-21T03:42:15;92084.19;;;2.13;88.29
64602;BME280;68371;42.630;23.192;2023-11-21T03:44:42;92069.78;;;2.07;87.90
64602;BME280;68371;42.630;23.192;2023-11-21T03:47:09;92068.25;;;2.06;88.05
64602;BME280;68371;42.630;23.192;2023-11-21T03:49:37;92067.00;;;2.04;88.39
64602;BME280;68371;42.630;23.192;2023-11-21T03:52:05;92060.94;;;2.08;88.82
64602;BME280;68371;42.630;23.192;2023-11-21T03:54:33;92054.25;;;2.07;88.64
64602;BME280;68371;42.630;23.192;2023-11-21T03:56:59;92052.63;;;2.11;88.60
64602;BME280;68371;42.630;23.192;2023-11-21T03:59:26;92031.41;;;1.95;89.05
64602;BME280;68371;42.630;23.192;2023-11-21T04:01:55;92039.00;;;2.06;89.27
64602;BME280;68371;42.630;23.192;2023-11-21T04:04:22;92047.03;;;2.04;89.25
64602;BME280;68371;42.630;23.192;2023-11-21T04:06:50;92050.09;;;2.06;89.26
64602;BME280;68371;42.630;23.192;2023-11-21T04:09:17;92049.81;;;2.08;89.33
64602;BME280;68371;42.630;23.192;2023-11-21T04:11:44;92043.97;;;2.02;89.54
64602;BME280;68371;42.630;23.192;2023-11-21T04:14:11;92046.75;;;2.06;89.56
64602;BME280;68371;42.630;23.192;2023-11-21T04:16:37;92045.91;;;1.96;89.59
64602;BME280;68371;42.630;23.192;2023-11-21T04:19:04;92045.34;;;1.99;89.54
64602;BME280;68371;42.630;23.192;2023-11-21T04:21:31;92050.41;;;2.05;89.94
64602;BME280;68371;42.630;23.192;2023-11-21T04:24:00;92054.94;;;1.99;89.96
64602;BME280;68371;42.630;23.192;2023-11-21T04:26:26;92052.34;;;1.99;90.11
64602;BME280;68371;42.630;23.192;2023-11-21T04:28:53;92061.63;;;2.00;90.03
64602;BME280;68371;42.630;23.192;2023-11-21T04:31:20;92051.06;;;1.96;90.23
64602;BME280;68371;42.630;23.192;2023-11-21T04:33:46;92056.09;;;1.93;90.53
64602;BME280;68371;42.630;23.192;2023-11-21T04:36:13;92055.63;;;1.91;89.89
64602;BME280;68371;42.630;23.192;2023-11-21T04:38:40;92052.44;;;1.94;89.42
64602;BME280;68371;42.630;23.192;2023-11-21T04:41:08;92047.91;;;1.99;89.39
64602;BME280;68371;42.630;23.192;2023-11-21T04:43:35;92053.09;;;1.99;89.61
64602;BME280;68371;42.630;23.192;2023-11-21T04:46:01;92048.41;;;2.02;89.65
64602;BME280;68371;42.630;23.192;2023-11-21T04:48:28;92050.09;;;2.06;89.22
64602;BME280;68371;42.630;23.192;2023-11-21T04:50:55;92057.13;;;2.06;89.79
64602;BME280;68371;42.630;23.192;2023-11-21T04:53:21;92047.81;;;2.05;89.48
64602;BME280;68371;42.630;23.192;2023-11-21T04:55:48;92054.72;;;2.09;88.90
64602;BME280;68371;42.630;23.192;2023-11-21T04:58:16;92053.31;;;2.03;89.08
64602;BME280;68371;42.630;23.192;2023-11-21T05:00:44;92070.38;;;2.04;89.13
64602;BME280;68371;42.630;23.192;2023-11-21T05:03:11;92064.13;;;2.19;91.46
64602;BME280;68371;42.630;23.192;2023-11-21T05:05:38;92055.19;;;2.25;89.51
64602;BME280;68371;42.630;23.192;2023-11-21T05:08:04;92051.03;;;2.24;88.97
64602;BME280;68371;42.630;23.192;2023-11-21T05:10:31;92049.81;;;2.22;88.74
64602;BME280;68371;42.630;23.192;2023-11-21T05:12:58;92047.91;;;2.13;88.95
64602;BME280;68371;42.630;23.192;2023-11-21T05:15:26;92028.06;;;1.95;88.96
64602;BME280;68371;42.630;23.192;2023-11-21T05:17:53;92050.97;;;2.15;89.08
64602;BME280;68371;42.630;23.192;2023-11-21T05:20:20;92055.56;;;2.18;89.39
64602;BME280;68371;42.630;23.192;2023-11-21T05:22:47;92058.53;;;2.26;89.15
64602;BME280;68371;42.630;23.192;2023-11-21T05:25:15;92060.47;;;2.20;89.64
64602;BME280;68371;42.630;23.192;2023-11-21T05:27:43;92065.47;;;2.03;89.42
64602;BME280;68371;42.630;23.192;2023-11-21T05:30:11;92065.19;;;2.04;89.68
64602;BME280;68371;42.630;23.192;2023-11-21T05:32:39;92076.97;;;2.10;89.83
64602;BME280;68371;42.630;23.192;2023-11-21T05:35:07;92067.00;;;2.04;89.30
64602;BME280;68371;42.630;23.192;2023-11-21T05:37:40;92073.63;;;2.10;89.05
64602;BME280;68371;42.630;23.192;2023-11-21T05:40:08;92074.56;;;2.14;88.65
64602;BME280;68371;42.630;23.192;2023-11-21T05:42:36;92081.00;;;2.16;88.56
64602;BME280;68371;42.630;23.192;2023-11-21T05:45:03;92079.00;;;2.13;89.04
64602;BME280;68371;42.630;23.192;2023-11-21T05:47:36;92076.03;;;2.06;89.76
64602;BME280;68371;42.630;23.192;2023-11-21T05:50:05;92063.53;;;2.08;89.42
64602;BME280;68371;42.630;23.192;2023-11-21T05:52:35;92067.69;;;2.09;89.40
64602;BME280;68371;42.630;23.192;2023-11-21T05:55:02;92061.81;;;2.17;88.98
64602;BME280;68371;42.630;23.192;2023-11-21T05:57:30;92057.78;;;2.11;89.28
64602;BME280;68371;42.630;23.192;2023-11-21T05:59:57;92061.34;;;2.15;89.49
64602;BME280;68371;42.630;23.192;2023-11-21T06:02:23;92058.44;;;2.17;89.71
64602;BME280;68371;42.630;23.192;2023-11-21T06:04:51;92062.28;;;2.19;89.78
64602;BME280;68371;42.630;23.192;2023-11-21T06:07:19;92062.00;;;2.21;90.10
64602;BME280;68371;42.630;23.192;2023-11-21T06:09:47;92064.47;;;2.26;89.61
64602;BME280;68371;42.630;23.192;2023-11-21T06:12:15;92067.06;;;2.26;89.43
64602;BME280;68371;42.630;23.192;2023-11-21T06:14:42;92063.72;;;2.26;89.68
64602;BME280;68371;42.630;23.192;2023-11-21T06:17:09;92066.19;;;2.31;90.17
64602;BME280;68371;42.630;23.192;2023-11-21T06:19:36;92065.25;;;2.27;90.10
64602;BME280;68371;42.630;23.192;2023-11-21T06:22:03;92071.97;;;2.28;90.51
64602;BME280;68371;42.630;23.192;2023-11-21T06:24:31;92072.44;;;2.30;91.14
64602;BME280;68371;42.630;23.192;2023-11-21T06:26:58;92073.88;;;2.36;91.05
64602;BME280;68371;42.630;23.192;2023-11-21T06:29:24;92075.50;;;2.46;91.16
64602;BME280;68371;42.630;23.192;2023-11-21T06:31:52;92075.00;;;2.44;91.17
64602;BME280;68371;42.630;23.192;2023-11-21T06:34:20;92072.41;;;2.44;91.10
64602;BME280;68371;42.630;23.192;2023-11-21T06:36:47;92076.25;;;2.46;91.69
64602;BME280;68371;42.630;23.192;2023-11-21T06:39:13;92078.72;;;2.51;91.48
64602;BME280;68371;42.630;23.192;2023-11-21T06:41:43;92084.84;;;2.55;91.80
64602;BME280;68371;42.630;23.192;2023-11-21T06:44:10;92086.47;;;2.65;91.66
64602;BME280;68371;42.630;23.192;2023-11-21T06:46:37;92094.91;;;2.71;91.65
64602;BME280;68371;42.630;23.192;2023-11-21T06:49:07;92090.84;;;2.78;91.84
64602;BME280;68371;42.630;23.192;2023-11-21T06:51:34;92097.88;;;2.78;92.02
64602;BME280;68371;42.630;23.192;2023-11-21T06:54:01;92093.16;;;2.80;92.30
64602;BME280;68371;42.630;23.192;2023-11-21T06:56:27;92098.69;;;2.87;92.30
64602;BME280;68371;42.630;23.192;2023-11-21T06:58:56;92101.19;;;2.92;92.70
64602;BME280;68371;42.630;23.192;2023-11-21T07:01:22;92098.47;;;2.97;93.13
64602;BME280;68371;42.630;23.192;2023-11-21T07:03:50;92087.03;;;2.98;93.36
64602;BME280;68371;42.630;23.192;2023-11-21T07:06:16;92092.75;;;3.09;93.63
64602;BME280;68371;42.630;23.192;2023-11-21T07:08:43;92086.97;;;3.12;93.82
64602;BME280;68371;42.630;23.192;2023-11-21T07:11:10;92084.53;;;3.16;94.21
64602;BME280;68371;42.630;23.192;2023-11-21T07:13:37;92080.47;;;3.24;94.23
64602;BME280;68371;42.630;23.192;2023-11-21T07:16:06;92081.13;;;3.29;94.75
64602;BME280;68371;42.630;23.192;2023-11-21T07:18:32;92088.19;;;3.37;94.93
64602;BME280;68371;42.630;23.192;2023-11-21T07:20:59;92087.63;;;3.49;95.46
64602;BME280;68371;42.630;23.192;2023-11-21T07:23:26;92089.22;;;3.59;95.90
64602;BME280;68371;42.630;23.192;2023-11-21T07:25:52;92080.38;;;3.69;95.88
64602;BME280;68371;42.630;23.192;2023-11-21T07:28:19;92088.50;;;3.76;95.63
64602;BME280;68371;42.630;23.192;2023-11-21T07:30:46;92082.28;;;3.86;95.71
64602;BME280;68371;42.630;23.192;2023-11-21T07:33:14;92090.41;;;3.93;96.13
64602;BME280;68371;42.630;23.192;2023-11-21T07:35:41;92097.47;;;4.01;96.32
64602;BME280;68371;42.630;23.192;2023-11-21T07:38:08;92091.22;;;4.11;96.48
64602;BME280;68371;42.630;23.192;2023-11-21T07:40:35;92089.56;;;4.24;95.83
64602;BME280;68371;42.630;23.192;2023-11-21T07:43:02;92088.22;;;4.35;95.09
64602;BME280;68371;42.630;23.192;2023-11-21T07:45:28;92097.88;;;4.43;93.35
64602;BME280;68371;42.630;23.192;2023-11-21T07:47:55;92084.13;;;4.51;93.94
64602;BME280;68371;42.630;23.192;2023-11-21T07:50:23;92083.81;;;4.44;94.15
64602;BME280;68371;42.630;23.192;2023-11-21T07:52:52;92080.28;;;4.57;94.49
64602;BME280;68371;42.630;23.192;2023-11-21T07:55:19;92077.09;;;4.69;94.31
64602;BME280;68371;42.630;23.192;2023-11-21T07:57:46;92071.75;;;4.83;94.26
64602;BME280;68371;42.630;23.192;2023-11-21T08:00:13;92073.88;;;4.90;94.72
64602;BME280;68371;42.630;23.192;2023-11-21T08:02:40;92074.31;;;5.00;94.76
64602;BME280;68371;42.630;23.192;2023-11-21T08:05:08;92073.53;;;5.09;94.45
64602;BME280;68371;42.630;23.192;2023-11-21T08:07:37;92067.72;;;5.20;94.21
64602;BME280;68371;42.630;23.192;2023-11-21T08:10:05;92064.66;;;5.27;94.02
64602;BME280;68371;42.630;23.192;2023-11-21T08:12:35;92066.59;;;5.39;93.53
64602;BME280;68371;42.630;23.192;2023-11-21T08:15:02;92068.72;;;5.54;93.17
64602;BME280;68371;42.630;23.192;2023-11-21T08:17:29;92066.88;;;5.55;89.76
64602;BME280;68371;42.630;23.192;2023-11-21T08:19:59;92065.91;;;5.68;88.77
64602;BME280;68371;42.630;23.192;2023-11-21T08:22:25;92068.03;;;5.75;88.55
64602;BME280;68371;42.630;23.192;2023-11-21T08:24:53;92065.56;;;5.78;87.49
64602;BME280;68371;42.630;23.192;2023-11-21T08:27:21;92070.75;;;5.87;87.01
64602;BME280;68371;42.630;23.192;2023-11-21T08:29:48;92058.16;;;5.89;86.92
64602;BME280;68371;42.630;23.192;2023-11-21T08:32:16;92061.41;;;5.95;86.85
64602;BME280;68371;42.630;23.192;2023-11-21T08:34:42;92047.25;;;5.96;86.48
64602;BME280;68371;42.630;23.192;2023-11-21T08:37:11;92049.72;;;6.01;86.35
64602;BME280;68371;42.630;23.192;2023-11-21T08:39:37;92055.81;;;6.05;86.62
64602;BME280;68371;42.630;23.192;2023-11-21T08:42:05;92048.53;;;6.19;85.53
64602;BME280;68371;42.630;23.192;2023-11-21T08:44:33;92053.84;;;6.32;85.93
64602;BME280;68371;42.630;23.192;2023-11-21T08:47:00;92047.78;;;6.40;86.00
64602;BME280;68371;42.630;23.192;2023-11-21T08:49:27;92046.78;;;6.53;85.66
64602;BME280;68371;42.630;23.192;2023-11-21T08:51:55;92040.88;;;6.65;84.97
64602;BME280;68371;42.630;23.192;2023-11-21T08:54:24;92026.88;;;6.70;83.81
64602;BME280;68371;42.630;23.192;2023-11-21T08:56:51;92025.81;;;6.83;85.16
64602;BME280;68371;42.630;23.192;2023-11-21T08:59:19;92013.66;;;6.87;84.35
64602;BME280;68371;42.630;23.192;2023-11-21T09:01:45;92003.06;;;7.05;83.38
64602;BME280;68371;42.630;23.192;2023-11-21T09:04:13;91997.56;;;7.18;82.11
64602;BME280;68371;42.630;23.192;2023-11-21T09:06:39;91993.78;;;7.28;81.58
64602;BME280;68371;42.630;23.192;2023-11-21T09:09:06;91994.00;;;7.35;82.82
64602;BME280;68371;42.630;23.192;2023-11-21T09:11:33;91989.44;;;7.32;81.50
64602;BME280;68371;42.630;23.192;2023-11-21T09:14:02;91969.41;;;7.36;80.29
64602;BME280;68371;42.630;23.192;2023-11-21T09:16:30;91968.22;;;7.46;79.59
64602;BME280;68371;42.630;23.192;2023-11-21T09:18:58;91972.78;;;7.49;79.38
64602;BME280;68371;42.630;23.192;2023-11-21T09:21:24;91962.75;;;7.39;80.19
64602;BME280;68371;42.630;23.192;2023-11-21T09:23:53;91957.53;;;7.51;78.28
64602;BME280;68371;42.630;23.192;2023-11-21T09:26:19;91961.13;;;7.59;79.60
64602;BME280;68371;42.630;23.192;2023-11-21T09:28:46;91947.84;;;7.52;78.07
64602;BME280;68371;42.630;23.192;2023-11-21T09:31:13;91938.81;;;7.49;77.44
64602;BME280;68371;42.630;23.192;2023-11-21T09:33:42;91934.25;;;7.58;78.00
64602;BME280;68371;42.630;23.192;2023-11-21T09:36:11;91928.00;;;7.75;78.14
64602;BME280;68371;42.630;23.192;2023-11-21T09:38:38;91930.41;;;7.93;76.44
64602;BME280;68371;42.630;23.192;2023-11-21T09:43:54;91910.72;;;8.23;77.21
64602;BME280;68371;42.630;23.192;2023-11-21T09:46:27;91891.81;;;8.30;74.82
64602;BME280;68371;42.630;23.192;2023-11-21T09:48:57;91903.03;;;8.43;73.92
64602;BME280;68371;42.630;23.192;2023-11-21T09:51:26;91899.00;;;8.46;72.92
64602;BME280;68371;42.630;23.192;2023-11-21T09:53:57;91893.63;;;8.54;72.03
64602;BME280;68371;42.630;23.192;2023-11-21T09:56:26;91890.63;;;8.68;73.65
64602;BME280;68371;42.630;23.192;2023-11-21T09:58:55;91897.66;;;8.80;72.28
64602;BME280;68371;42.630;23.192;2023-11-21T10:01:25;91892.69;;;8.91;71.14
64602;BME280;68371;42.630;23.192;2023-11-21T10:03:53;91897.94;;;9.22;66.17
64602;BME280;68371;42.630;23.192;2023-11-21T10:06:21;91885.94;;;9.53;65.41
64602;BME280;68371;42.630;23.192;2023-11-21T10:08:51;91883.94;;;9.82;63.99
64602;BME280;68371;42.630;23.192;2023-11-21T10:11:19;91884.53;;;10.11;60.61
64602;BME280;68371;42.630;23.192;2023-11-21T10:13:49;91877.97;;;10.20;60.31
64602;BME280;68371;42.630;23.192;2023-11-21T10:16:18;91876.94;;;10.25;61.19
64602;BME280;68371;42.630;23.192;2023-11-21T10:18:46;91881.81;;;10.42;59.81
64602;BME280;68371;42.630;23.192;2023-11-21T10:21:14;91872.75;;;10.40;59.94
64602;BME280;68371;42.630;23.192;2023-11-21T10:23:43;91868.19;;;10.56;58.26
64602;BME280;68371;42.630;23.192;2023-11-21T10:26:12;91871.09;;;10.51;59.50
64602;BME280;68371;42.630;23.192;2023-11-21T10:28:41;91871.50;;;10.53;59.22
64602;BME280;68371;42.630;23.192;2023-11-21T10:31:08;91862.38;;;10.67;60.13
64602;BME280;68371;42.630;23.192;2023-11-21T10:33:36;91860.25;;;10.53;59.08
64602;BME280;68371;42.630;23.192;2023-11-21T10:36:03;91860.31;;;10.56;59.30
64602;BME280;68371;42.630;23.192;2023-11-21T10:38:33;91858.63;;;10.68;59.47
64602;BME280;68371;42.630;23.192;2023-11-21T10:41:04;91860.91;;;10.69;58.05
64602;BME280;68371;42.630;23.192;2023-11-21T10:43:32;91842.06;;;10.63;58.72
64602;BME280;68371;42.630;23.192;2023-11-21T10:45:59;91853.03;;;10.69;60.38
64602;BME280;68371;42.630;23.192;2023-11-21T10:48:26;91851.09;;;10.66;57.77
64602;BME280;68371;42.630;23.192;2023-11-21T10:50:52;91849.41;;;10.54;58.14
64602;BME280;68371;42.630;23.192;2023-11-21T10:53:20;91844.00;;;10.47;57.52
64602;BME280;68371;42.630;23.192;2023-11-21T10:55:46;91841.44;;;10.31;58.92
64602;BME280;68371;42.630;23.192;2023-11-21T10:58:16;91855.94;;;10.25;59.60
64602;BME280;68371;42.630;23.192;2023-11-21T11:00:44;91846.03;;;10.34;59.69
64602;BME280;68371;42.630;23.192;2023-11-21T11:03:11;91851.31;;;10.18;58.67
64602;BME280;68371;42.630;23.192;2023-11-21T11:05:40;91844.59;;;10.21;58.78
64602;BME280;68371;42.630;23.192;2023-11-21T11:08:11;91848.25;;;10.32;57.31
64602;BME280;68371;42.630;23.192;2023-11-21T11:10:44;91839.94;;;10.30;58.25
64602;BME280;68371;42.630;23.192;2023-11-21T11:13:12;91835.69;;;10.26;59.38
64602;BME280;68371;42.630;23.192;2023-11-21T11:15:41;91825.00;;;10.15;61.06
64602;BME280;68371;42.630;23.192;2023-11-21T11:18:09;91818.28;;;10.17;60.89
64602;BME280;68371;42.630;23.192;2023-11-21T11:20:38;91811.59;;;10.20;61.06
64602;BME280;68371;42.630;23.192;2023-11-21T11:23:17;91807.66;;;10.30;59.77
64602;BME280;68371;42.630;23.192;2023-11-21T11:26:05;91811.91;;;10.34;59.15
64602;BME280;68371;42.630;23.192;2023-11-21T11:28:35;91804.25;;;10.29;59.67
64602;BME280;68371;42.630;23.192;2023-11-21T11:31:14;91800.97;;;10.32;60.46
64602;BME280;68371;42.630;23.192;2023-11-21T11:33:53;91813.69;;;10.30;59.49
64602;BME280;68371;42.630;23.192;2023-11-21T11:36:28;91832.19;;;10.18;61.59
64602;BME280;68371;42.630;23.192;2023-11-21T11:38:56;91826.88;;;10.14;61.57
64602;BME280;68371;42.630;23.192;2023-11-21T11:41:26;91831.47;;;10.21;63.44
64602;BME280;68371;42.630;23.192;2023-11-21T11:43:53;91845.22;;;10.14;63.60
64602;BME280;68371;42.630;23.192;2023-11-21T11:46:40;91825.75;;;10.15;62.91
64602;BME280;68371;42.630;23.192;2023-11-21T11:49:08;91811.19;;;10.18;63.18
64602;BME280;68371;42.630;23.192;2023-11-21T11:51:36;91812.84;;;10.07;62.94
64602;BME280;68371;42.630;23.192;2023-11-21T11:54:03;91807.19;;;10.05;64.33
64602;BME280;68371;42.630;23.192;2023-11-21T11:56:33;91804.47;;;10.01;67.18
64602;BME280;68371;42.630;23.192;2023-11-21T11:59:03;91806.34;;;10.00;68.67
64602;BME280;68371;42.630;23.192;2023-11-21T12:01:33;91807.66;;;9.91;70.77
64602;BME280;68371;42.630;23.192;2023-11-21T12:04:23;91805.22;;;9.82;72.22
64602;BME280;68371;42.630;23.192;2023-11-21T12:06:56;91806.47;;;9.88;74.75
64602;BME280;68371;42.630;23.192;2023-11-21T12:09:26;91815.66;;;9.78;73.12
64602;BME280;68371;42.630;23.192;2023-11-21T12:11:53;91824.38;;;9.67;76.54
64602;BME280;68371;42.630;23.192;2023-11-21T12:14:22;91799.63;;;9.64;76.09
64602;BME280;68371;42.630;23.192;2023-11-21T12:16:50;91802.94;;;9.80;73.55
64602;BME280;68371;42.630;23.192;2023-11-21T12:19:18;91784.09;;;9.75;74.94
64602;BME280;68371;42.630;23.192;2023-11-21T12:21:46;91784.88;;;9.75;74.95
64602;BME280;68371;42.630;23.192;2023-11-21T12:24:14;91790.56;;;9.61;77.29
64602;BME280;68371;42.630;23.192;2023-11-21T12:26:42;91795.56;;;9.51;75.96
64602;BME280;68371;42.630;23.192;2023-11-21T12:29:09;91801.94;;;9.50;75.57
64602;BME280;68371;42.630;23.192;2023-11-21T12:31:36;91806.25;;;9.42;76.74
64602;BME280;68371;42.630;23.192;2023-11-21T12:34:04;91798.19;;;9.31;74.97
64602;BME280;68371;42.630;23.192;2023-11-21T12:36:32;91796.09;;;9.05;73.85
64602;BME280;68371;42.630;23.192;2023-11-21T12:39:00;91785.19;;;9.19;75.84
64602;BME280;68371;42.630;23.192;2023-11-21T12:41:28;91784.66;;;9.13;75.29
64602;BME280;68371;42.630;23.192;2023-11-21T12:43:55;91789.16;;;9.13;77.72
64602;BME280;68371;42.630;23.192;2023-11-21T12:46:23;91778.72;;;9.16;76.81
64602;BME280;68371;42.630;23.192;2023-11-21T12:48:51;91773.97;;;9.02;78.66
64602;BME280;68371;42.630;23.192;2023-11-21T12:51:21;91771.50;;;8.94;79.45
64602;BME280;68371;42.630;23.192;2023-11-21T12:53:48;91772.44;;;8.86;79.51
64602;BME280;68371;42.630;23.192;2023-11-21T12:56:15;91778.69;;;8.81;78.94
64602;BME280;68371;42.630;23.192;2023-11-21T12:58:45;91762.88;;;8.77;79.44
64602;BME280;68371;42.630;23.192;2023-11-21T13:01:13;91756.66;;;8.66;79.65
64602;BME280;68371;42.630;23.192;2023-11-21T13:03:46;91756.38;;;8.55;80.62
64602;BME280;68371;42.630;23.192;2023-11-21T13:06:18;91751.50;;;8.54;79.10